sensor_id;sensor_type;location;lat;lon;timestamp;pressure;altitude;pressure_sealevel;temperature;humidity
54994;BME280;40891;47.242;8.648;2023-05-07T00:00:12;96175.19;;;14.89;92.17
54994;BME280;40891;47.242;8.648;2023-05-07T00:02:40;96171.41;;;14.92;92.76
54994;BME280;40891;47.242;8.648;2023-05-07T00:05:06;96170.25;;;14.84;91.93
54994;BME280;40891;47.242;8.648;2023-05-07T00:07:32;96169.19;;;14.82;92.32
54994;BME280;40891;47.242;8.648;2023-05-07T00:09:57;96177.31;;;14.80;92.22
54994;BME280;40891;47.242;8.648;2023-05-07T00:12:23;96177.03;;;14.78;92.84
54994;BME280;40891;47.242;8.648;2023-05-07T00:14:48;96176.81;;;14.81;92.85
54994;BME280;40891;47.242;8.648;2023-05-07T00:17:13;96172.16;;;14.93;92.29
54994;BME280;40891;47.242;8.648;2023-05-07T00:19:39;96169.06;;;14.91;91.13
54994;BME280;40891;47.242;8.648;2023-05-07T00:22:04;96171.81;;;14.85;91.34
54994;BME280;40891;47.242;8.648;2023-05-07T00:24:29;96166.91;;;14.80;92.36
54994;BME280;40891;47.242;8.648;2023-05-07T00:26:55;96163.53;;;14.76;92.67
54994;BME280;40891;47.242;8.648;2023-05-07T00:29:20;96157.34;;;14.72;92.34
54994;BME280;40891;47.242;8.648;2023-05-07T00:31:45;96162.88;;;14.67;92.82
54994;BME280;40891;47.242;8.648;2023-05-07T00:34:11;96167.88;;;14.63;92.98
54994;BME280;40891;47.242;8.648;2023-05-07T00:36:36;96161.22;;;14.60;93.10
54994;BME280;40891;47.242;8.648;2023-05-07T00:39:01;96161.63;;;14.53;93.36
54994;BME280;40891;47.242;8.648;2023-05-07T00:41:29;96164.13;;;14.51;93.21
54994;BME280;40891;47.242;8.648;2023-05-07T00:43:55;96160.88;;;14.53;92.87
54994;BME280;40891;47.242;8.648;2023-05-07T00:46:22;96159.72;;;14.45;93.67
54994;BME280;40891;47.242;8.648;2023-05-07T00:48:48;96160.50;;;14.45;93.85
54994;BME280;40891;47.242;8.648;2023-05-07T00:51:15;96154.78;;;14.40;93.29
54994;BME280;40891;47.242;8.648;2023-05-07T00:53:40;96151.50;;;14.41;92.88
54994;BME280;40891;47.242;8.648;2023-05-07T00:56:06;96146.97;;;14.44;93.16
54994;BME280;40891;47.242;8.648;2023-05-07T00:58:32;96157.41;;;14.43;93.38
54994;BME280;40891;47.242;8.648;2023-05-07T01:00:58;96152.50;;;14.38;93.68
54994;BME280;40891;47.242;8.648;2023-05-07T01:03:23;96154.69;;;14.34;93.42
54994;BME280;40891;47.242;8.648;2023-05-07T01:05:49;96143.72;;;14.30;93.68
54994;BME280;40891;47.242;8.648;2023-05-07T01:08:16;96145.72;;;14.30;94.07
54994;BME280;40891;47.242;8.648;2023-05-07T01:10:43;96146.97;;;14.29;94.58
54994;BME280;40891;47.242;8.648;2023-05-07T01:13:12;96139.81;;;14.28;94.72
54994;BME280;40891;47.242;8.648;2023-05-07T01:15:39;96137.53;;;14.26;94.34
54994;BME280;40891;47.242;8.648;2023-05-07T01:18:06;96139.81;;;14.28;94.46
54994;BME280;40891;47.242;8.648;2023-05-07T01:20:32;96142.34;;;14.26;94.80
54994;BME280;40891;47.242;8.648;2023-05-07T01:22:57;96146.59;;;14.21;94.91
54994;BME280;40891;47.242;8.648;2023-05-07T01:25:23;96141.78;;;14.22;95.06
54994;BME280;40891;47.242;8.648;2023-05-07T01:27:48;96147.38;;;14.22;94.58
54994;BME280;40891;47.242;8.648;2023-05-07T01:30:14;96158.53;;;14.22;95.44
54994;BME280;40891;47.242;8.648;2023-05-07T01:32:51;96151.50;;;14.12;95.12
54994;BME280;40891;47.242;8.648;2023-05-07T01:35:26;96155.25;;;14.09;95.04
54994;BME280;40891;47.242;8.648;2023-05-07T01:37:52;96158.03;;;14.09;95.66
54994;BME280;40891;47.242;8.648;2023-05-07T01:40:19;96155.75;;;14.07;94.99
54994;BME280;40891;47.242;8.648;2023-05-07T01:42:45;96152.84;;;14.02;95.77
54994;BME280;40891;47.242;8.648;2023-05-07T01:45:11;96152.66;;;14.05;95.07
54994;BME280;40891;47.242;8.648;2023-05-07T01:47:37;96145.81;;;14.06;95.51
54994;BME280;40891;47.242;8.648;2023-05-07T01:50:05;96147.53;;;14.04;95.94
54994;BME280;40891;47.242;8.648;2023-05-07T01:52:30;96147.91;;;13.97;96.15
54994;BME280;40891;47.242;8.648;2023-05-07T01:54:56;96140.03;;;13.95;96.67
54994;BME280;40891;47.242;8.648;2023-05-07T01:57:21;96155.22;;;13.94;96.86
54994;BME280;40891;47.242;8.648;2023-05-07T01:59:46;96152.16;;;13.92;97.11
54994;BME280;40891;47.242;8.648;2023-05-07T02:02:12;96157.16;;;13.88;97.46
54994;BME280;40891;47.242;8.648;2023-05-07T02:04:37;96158.91;;;13.86;97.57
54994;BME280;40891;47.242;8.648;2023-05-07T02:07:02;96155.53;;;13.82;97.28
54994;BME280;40891;47.242;8.648;2023-05-07T02:09:28;96153.69;;;13.79;97.06
54994;BME280;40891;47.242;8.648;2023-05-07T02:11:53;96157.72;;;13.78;96.92
54994;BME280;40891;47.242;8.648;2023-05-07T02:14:18;96157.72;;;13.78;97.90
54994;BME280;40891;47.242;8.648;2023-05-07T02:16:45;96153.09;;;13.75;98.01
54994;BME280;40891;47.242;8.648;2023-05-07T02:19:10;96160.88;;;13.71;97.99
54994;BME280;40891;47.242;8.648;2023-05-07T02:21:35;96157.81;;;13.69;97.96
54994;BME280;40891;47.242;8.648;2023-05-07T02:24:01;96164.66;;;13.68;98.48
54994;BME280;40891;47.242;8.648;2023-05-07T02:26:26;96166.84;;;13.63;98.23
54994;BME280;40891;47.242;8.648;2023-05-07T02:28:51;96165.78;;;13.61;97.69
54994;BME280;40891;47.242;8.648;2023-05-07T02:31:17;96165.31;;;13.62;97.41
54994;BME280;40891;47.242;8.648;2023-05-07T02:33:42;96164.03;;;13.63;96.88
54994;BME280;40891;47.242;8.648;2023-05-07T02:36:11;96164.25;;;13.60;97.49
54994;BME280;40891;47.242;8.648;2023-05-07T02:38:37;96159.91;;;13.59;97.22
54994;BME280;40891;47.242;8.648;2023-05-07T02:41:02;96178.38;;;13.56;97.53
54994;BME280;40891;47.242;8.648;2023-05-07T02:43:27;96172.88;;;13.47;98.14
54994;BME280;40891;47.242;8.648;2023-05-07T02:46:19;96171.03;;;13.44;98.05
54994;BME280;40891;47.242;8.648;2023-05-07T02:48:45;96174.59;;;13.45;98.67
54994;BME280;40891;47.242;8.648;2023-05-07T02:51:10;96173.72;;;13.39;98.48
54994;BME280;40891;47.242;8.648;2023-05-07T02:53:35;96168.13;;;13.39;98.38
54994;BME280;40891;47.242;8.648;2023-05-07T02:56:02;96173.88;;;13.35;97.85
54994;BME280;40891;47.242;8.648;2023-05-07T02:58:27;96174.66;;;13.36;97.54
54994;BME280;40891;47.242;8.648;2023-05-07T03:00:53;96179.19;;;13.33;97.93
54994;BME280;40891;47.242;8.648;2023-05-07T03:03:22;96179.19;;;13.33;98.55
54994;BME280;40891;47.242;8.648;2023-05-07T03:05:47;96167.22;;;13.33;98.38
54994;BME280;40891;47.242;8.648;2023-05-07T03:08:12;96171.44;;;13.28;99.03
54994;BME280;40891;47.242;8.648;2023-05-07T03:10:38;96177.22;;;13.25;100.00
54994;BME280;40891;47.242;8.648;2023-05-07T03:13:04;96180.19;;;13.21;100.00
54994;BME280;40891;47.242;8.648;2023-05-07T03:15:30;96181.44;;;13.20;99.31
54994;BME280;40891;47.242;8.648;2023-05-07T03:17:55;96175.88;;;13.20;98.98
54994;BME280;40891;47.242;8.648;2023-05-07T03:20:21;96175.09;;;13.20;98.91
54994;BME280;40891;47.242;8.648;2023-05-07T03:22:47;96178.03;;;13.16;98.64
54994;BME280;40891;47.242;8.648;2023-05-07T03:25:12;96175.91;;;13.11;100.00
54994;BME280;40891;47.242;8.648;2023-05-07T03:27:39;96178.88;;;13.08;99.99
54994;BME280;40891;47.242;8.648;2023-05-07T03:30:05;96176.22;;;13.04;98.95
54994;BME280;40891;47.242;8.648;2023-05-07T03:32:32;96180.13;;;13.07;99.01
54994;BME280;40891;47.242;8.648;2023-05-07T03:34:57;96182.13;;;13.06;99.32
54994;BME280;40891;47.242;8.648;2023-05-07T03:37:22;96175.94;;;13.02;99.91
54994;BME280;40891;47.242;8.648;2023-05-07T03:39:47;96177.19;;;13.01;100.00
54994;BME280;40891;47.242;8.648;2023-05-07T03:42:13;96182.78;;;13.01;100.00
54994;BME280;40891;47.242;8.648;2023-05-07T03:44:38;96182.59;;;13.05;100.00
54994;BME280;40891;47.242;8.648;2023-05-07T03:47:04;96192.97;;;13.04;99.51
54994;BME280;40891;47.242;8.648;2023-05-07T03:49:29;96191.59;;;12.99;100.00
54994;BME280;40891;47.242;8.648;2023-05-07T03:51:54;96193.94;;;13.01;99.70
54994;BME280;40891;47.242;8.648;2023-05-07T03:54:20;96192.09;;;12.98;99.10
54994;BME280;40891;47.242;8.648;2023-05-07T03:56:46;96195.66;;;12.98;98.33
54994;BME280;40891;47.242;8.648;2023-05-07T03:59:14;96194.88;;;12.98;97.55
54994;BME280;40891;47.242;8.648;2023-05-07T04:01:40;96190.38;;;13.01;97.89
54994;BME280;40891;47.242;8.648;2023-05-07T04:04:05;96194.22;;;13.03;97.95
54994;BME280;40891;47.242;8.648;2023-05-07T04:06:31;96190.53;;;12.97;96.77
54994;BME280;40891;47.242;8.648;2023-05-07T04:08:56;96197.97;;;13.00;96.89
54994;BME280;40891;47.242;8.648;2023-05-07T04:11:22;96195.94;;;13.01;97.21
54994;BME280;40891;47.242;8.648;2023-05-07T04:13:47;96199.81;;;13.03;95.81
54994;BME280;40891;47.242;8.648;2023-05-07T04:16:13;96205.09;;;13.01;96.08
54994;BME280;40891;47.242;8.648;2023-05-07T04:18:38;96198.25;;;13.02;97.32
54994;BME280;40891;47.242;8.648;2023-05-07T04:21:04;96201.81;;;13.03;97.03
54994;BME280;40891;47.242;8.648;2023-05-07T04:23:29;96192.06;;;13.07;96.73
54994;BME280;40891;47.242;8.648;2023-05-07T04:25:54;96195.94;;;13.10;97.19
54994;BME280;40891;47.242;8.648;2023-05-07T04:28:20;96198.72;;;13.10;97.17
54994;BME280;40891;47.242;8.648;2023-05-07T04:30:45;96203.53;;;13.09;96.69
54994;BME280;40891;47.242;8.648;2023-05-07T04:33:11;96200.28;;;13.11;96.54
54994;BME280;40891;47.242;8.648;2023-05-07T04:35:36;96211.44;;;13.11;96.52
54994;BME280;40891;47.242;8.648;2023-05-07T04:38:02;96210.75;;;13.25;95.02
54994;BME280;40891;47.242;8.648;2023-05-07T04:40:27;96209.00;;;13.27;93.93
54994;BME280;40891;47.242;8.648;2023-05-07T04:42:52;96223.84;;;13.33;95.28
54994;BME280;40891;47.242;8.648;2023-05-07T04:45:18;96223.66;;;13.37;94.20
54994;BME280;40891;47.242;8.648;2023-05-07T04:47:43;96221.00;;;13.42;94.20
54994;BME280;40891;47.242;8.648;2023-05-07T04:50:09;96225.28;;;13.52;93.78
54994;BME280;40891;47.242;8.648;2023-05-07T04:52:35;96230.03;;;13.61;93.69
54994;BME280;40891;47.242;8.648;2023-05-07T04:55:00;96221.41;;;13.74;92.97
54994;BME280;40891;47.242;8.648;2023-05-07T04:57:26;96220.16;;;13.75;93.69
54994;BME280;40891;47.242;8.648;2023-05-07T04:59:52;96221.03;;;13.81;94.65
54994;BME280;40891;47.242;8.648;2023-05-07T05:02:18;96222.69;;;13.87;92.81
54994;BME280;40891;47.242;8.648;2023-05-07T05:04:43;96225.13;;;13.94;92.94
54994;BME280;40891;47.242;8.648;2023-05-07T05:07:08;96229.88;;;14.03;91.63
54994;BME280;40891;47.242;8.648;2023-05-07T05:09:34;96236.16;;;14.12;91.05
54994;BME280;40891;47.242;8.648;2023-05-07T05:11:59;96235.88;;;14.25;93.20
54994;BME280;40891;47.242;8.648;2023-05-07T05:14:25;96239.88;;;14.33;94.17
54994;BME280;40891;47.242;8.648;2023-05-07T05:16:50;96240.72;;;14.39;94.47
54994;BME280;40891;47.242;8.648;2023-05-07T05:19:15;96240.56;;;14.43;93.20
54994;BME280;40891;47.242;8.648;2023-05-07T05:21:41;96240.63;;;14.48;92.23
54994;BME280;40891;47.242;8.648;2023-05-07T05:24:06;96246.63;;;14.56;91.05
54994;BME280;40891;47.242;8.648;2023-05-07T05:26:32;96248.19;;;14.57;91.53
54994;BME280;40891;47.242;8.648;2023-05-07T05:28:57;96253.09;;;14.62;91.79
54994;BME280;40891;47.242;8.648;2023-05-07T05:31:22;96253.97;;;14.68;92.68
54994;BME280;40891;47.242;8.648;2023-05-07T05:33:48;96253.78;;;14.71;93.58
54994;BME280;40891;47.242;8.648;2023-05-07T05:36:13;96250.59;;;14.78;94.38
54994;BME280;40891;47.242;8.648;2023-05-07T05:38:39;96250.56;;;14.93;94.70
54994;BME280;40891;47.242;8.648;2023-05-07T05:41:05;96247.66;;;15.02;94.76
54994;BME280;40891;47.242;8.648;2023-05-07T05:43:30;96257.69;;;15.09;95.03
54994;BME280;40891;47.242;8.648;2023-05-07T05:45:56;96256.31;;;15.19;95.36
54994;BME280;40891;47.242;8.648;2023-05-07T05:48:22;96248.56;;;15.28;94.84
54994;BME280;40891;47.242;8.648;2023-05-07T05:50:47;96245.94;;;15.39;94.55
54994;BME280;40891;47.242;8.648;2023-05-07T05:53:13;96248.03;;;15.59;93.38
54994;BME280;40891;47.242;8.648;2023-05-07T05:55:38;96247.25;;;15.58;90.50
54994;BME280;40891;47.242;8.648;2023-05-07T05:58:03;96254.19;;;15.63;90.41
54994;BME280;40891;47.242;8.648;2023-05-07T06:00:29;96251.78;;;15.76;89.28
54994;BME280;40891;47.242;8.648;2023-05-07T06:02:54;96257.06;;;15.89;87.65
54994;BME280;40891;47.242;8.648;2023-05-07T06:05:20;96266.59;;;15.97;87.00
54994;BME280;40891;47.242;8.648;2023-05-07T06:07:45;96260.41;;;16.13;86.79
54994;BME280;40891;47.242;8.648;2023-05-07T06:10:11;96271.56;;;16.27;84.74
54994;BME280;40891;47.242;8.648;2023-05-07T06:12:36;96269.66;;;16.19;86.84
54994;BME280;40891;47.242;8.648;2023-05-07T06:15:01;96264.06;;;16.45;87.26
54994;BME280;40891;47.242;8.648;2023-05-07T06:17:27;96274.25;;;16.62;86.40
54994;BME280;40891;47.242;8.648;2023-05-07T06:19:52;96271.59;;;16.79;85.37
54994;BME280;40891;47.242;8.648;2023-05-07T06:22:18;96273.63;;;16.78;86.45
54994;BME280;40891;47.242;8.648;2023-05-07T06:24:43;96270.97;;;16.95;87.36
54994;BME280;40891;47.242;8.648;2023-05-07T06:27:08;96278.28;;;17.13;85.56
54994;BME280;40891;47.242;8.648;2023-05-07T06:29:34;96279.63;;;17.23;84.62
54994;BME280;40891;47.242;8.648;2023-05-07T06:32:09;96281.91;;;17.19;84.97
54994;BME280;40891;47.242;8.648;2023-05-07T06:34:35;96290.84;;;17.17;84.98
54994;BME280;40891;47.242;8.648;2023-05-07T06:37:00;96289.25;;;17.11;85.35
54994;BME280;40891;47.242;8.648;2023-05-07T06:39:26;96286.84;;;16.98;86.12
54994;BME280;40891;47.242;8.648;2023-05-07T06:41:51;96288.50;;;16.84;85.31
54994;BME280;40891;47.242;8.648;2023-05-07T06:44:17;96290.31;;;16.87;84.71
54994;BME280;40891;47.242;8.648;2023-05-07T06:46:42;96298.88;;;17.04;84.52
54994;BME280;40891;47.242;8.648;2023-05-07T06:49:07;96294.38;;;17.12;83.66
54994;BME280;40891;47.242;8.648;2023-05-07T06:51:33;96289.41;;;17.01;84.30
54994;BME280;40891;47.242;8.648;2023-05-07T06:53:58;96297.56;;;16.99;83.56
54994;BME280;40891;47.242;8.648;2023-05-07T06:56:23;96296.44;;;17.17;84.97
54994;BME280;40891;47.242;8.648;2023-05-07T06:58:49;96287.88;;;17.32;85.29
54994;BME280;40891;47.242;8.648;2023-05-07T07:01:14;96286.28;;;17.56;82.98
54994;BME280;40891;47.242;8.648;2023-05-07T07:03:40;96293.56;;;17.74;82.25
54994;BME280;40891;47.242;8.648;2023-05-07T07:06:05;96296.38;;;17.80;81.53
54994;BME280;40891;47.242;8.648;2023-05-07T07:08:30;96291.94;;;18.04;81.67
54994;BME280;40891;47.242;8.648;2023-05-07T07:10:56;96290.19;;;18.12;78.74
54994;BME280;40891;47.242;8.648;2023-05-07T07:13:21;96283.59;;;18.26;79.92
54994;BME280;40891;47.242;8.648;2023-05-07T07:15:46;96295.22;;;18.56;77.67
54994;BME280;40891;47.242;8.648;2023-05-07T07:18:12;96304.09;;;18.44;76.90
54994;BME280;40891;47.242;8.648;2023-05-07T07:20:37;96302.78;;;18.28;75.24
54994;BME280;40891;47.242;8.648;2023-05-07T07:23:03;96300.59;;;18.54;75.87
54994;BME280;40891;47.242;8.648;2023-05-07T07:25:28;96306.53;;;18.73;75.41
54994;BME280;40891;47.242;8.648;2023-05-07T07:27:53;96295.53;;;18.91;74.70
54994;BME280;40891;47.242;8.648;2023-05-07T07:30:18;96293.78;;;19.11;75.63
54994;BME280;40891;47.242;8.648;2023-05-07T07:32:44;96294.31;;;19.26;73.20
54994;BME280;40891;47.242;8.648;2023-05-07T07:35:09;96297.88;;;19.32;71.56
54994;BME280;40891;47.242;8.648;2023-05-07T07:37:35;96304.06;;;19.47;70.30
54994;BME280;40891;47.242;8.648;2023-05-07T07:40:00;96307.38;;;19.34;69.06
54994;BME280;40891;47.242;8.648;2023-05-07T07:42:26;96312.22;;;19.23;69.11
54994;BME280;40891;47.242;8.648;2023-05-07T07:44:51;96305.81;;;19.11;69.84
54994;BME280;40891;47.242;8.648;2023-05-07T07:47:17;96308.13;;;19.01;68.03
54994;BME280;40891;47.242;8.648;2023-05-07T07:49:42;96315.31;;;19.25;68.21
54994;BME280;40891;47.242;8.648;2023-05-07T07:52:07;96317.63;;;19.43;69.42
54994;BME280;40891;47.242;8.648;2023-05-07T07:54:33;96312.50;;;19.52;67.09
54994;BME280;40891;47.242;8.648;2023-05-07T07:56:58;96320.19;;;19.57;66.01
54994;BME280;40891;47.242;8.648;2023-05-07T07:59:23;96314.78;;;19.76;66.98
54994;BME280;40891;47.242;8.648;2023-05-07T08:01:49;96310.69;;;19.72;66.75
54994;BME280;40891;47.242;8.648;2023-05-07T08:04:15;96317.09;;;19.66;67.90
54994;BME280;40891;47.242;8.648;2023-05-07T08:06:41;96317.59;;;19.82;68.07
54994;BME280;40891;47.242;8.648;2023-05-07T08:09:07;96322.53;;;19.59;66.23
54994;BME280;40891;47.242;8.648;2023-05-07T08:11:33;96325.06;;;19.46;66.12
54994;BME280;40891;47.242;8.648;2023-05-07T08:13:59;96320.94;;;19.25;67.59
54994;BME280;40891;47.242;8.648;2023-05-07T08:16:24;96327.59;;;19.11;67.91
54994;BME280;40891;47.242;8.648;2023-05-07T08:18:50;96325.00;;;19.07;66.83
54994;BME280;40891;47.242;8.648;2023-05-07T08:21:15;96330.66;;;18.90;68.17
54994;BME280;40891;47.242;8.648;2023-05-07T08:23:40;96328.06;;;18.81;70.43
54994;BME280;40891;47.242;8.648;2023-05-07T08:26:07;96331.66;;;18.87;69.87
54994;BME280;40891;47.242;8.648;2023-05-07T08:28:33;96315.56;;;19.05;68.88
54994;BME280;40891;47.242;8.648;2023-05-07T08:30:58;96329.09;;;18.89;68.42
54994;BME280;40891;47.242;8.648;2023-05-07T08:33:25;96327.81;;;18.74;68.40
54994;BME280;40891;47.242;8.648;2023-05-07T08:35:50;96326.19;;;18.56;68.24
54994;BME280;40891;47.242;8.648;2023-05-07T08:38:16;96332.06;;;18.53;69.54
54994;BME280;40891;47.242;8.648;2023-05-07T08:40:41;96333.81;;;18.45;71.26
54994;BME280;40891;47.242;8.648;2023-05-07T08:43:07;96334.09;;;18.47;71.44
54994;BME280;40891;47.242;8.648;2023-05-07T08:45:33;96335.81;;;18.38;73.06
54994;BME280;40891;47.242;8.648;2023-05-07T08:48:02;96336.47;;;18.59;72.93
54994;BME280;40891;47.242;8.648;2023-05-07T08:50:28;96333.44;;;18.85;71.44
54994;BME280;40891;47.242;8.648;2023-05-07T08:52:54;96341.44;;;19.09;70.19
54994;BME280;40891;47.242;8.648;2023-05-07T08:55:20;96330.66;;;19.13;69.42
54994;BME280;40891;47.242;8.648;2023-05-07T08:57:45;96332.22;;;19.25;69.82
54994;BME280;40891;47.242;8.648;2023-05-07T09:00:12;96331.75;;;19.54;68.23
54994;BME280;40891;47.242;8.648;2023-05-07T09:02:38;96329.63;;;19.99;68.24
54994;BME280;40891;47.242;8.648;2023-05-07T09:05:03;96315.72;;;20.17;64.92
54994;BME280;40891;47.242;8.648;2023-05-07T09:07:30;96318.00;;;20.35;62.94
54994;BME280;40891;47.242;8.648;2023-05-07T09:09:56;96313.78;;;20.59;62.54
54994;BME280;40891;47.242;8.648;2023-05-07T09:12:22;96310.41;;;21.12;63.86
54994;BME280;40891;47.242;8.648;2023-05-07T09:14:47;96309.63;;;21.47;58.36
54994;BME280;40891;47.242;8.648;2023-05-07T09:17:14;96307.09;;;21.43;56.45
54994;BME280;40891;47.242;8.648;2023-05-07T09:19:40;96303.97;;;21.47;57.76
54994;BME280;40891;47.242;8.648;2023-05-07T09:22:05;96301.44;;;21.67;59.70
54994;BME280;40891;47.242;8.648;2023-05-07T09:24:33;96305.16;;;21.57;60.74
54994;BME280;40891;47.242;8.648;2023-05-07T09:27:02;96302.69;;;21.48;60.17
54994;BME280;40891;47.242;8.648;2023-05-07T09:29:28;96302.22;;;21.68;59.27
54994;BME280;40891;47.242;8.648;2023-05-07T09:31:55;96289.66;;;21.93;56.28
54994;BME280;40891;47.242;8.648;2023-05-07T09:34:20;96295.97;;;22.05;56.44
54994;BME280;40891;47.242;8.648;2023-05-07T09:36:46;96286.97;;;22.25;57.53
54994;BME280;40891;47.242;8.648;2023-05-07T09:39:12;96284.28;;;22.14;55.36
54994;BME280;40891;47.242;8.648;2023-05-07T09:41:45;96288.63;;;21.66;56.39
54994;BME280;40891;47.242;8.648;2023-05-07T09:44:10;96275.31;;;21.32;56.41
54994;BME280;40891;47.242;8.648;2023-05-07T09:46:36;96289.59;;;21.04;59.61
54994;BME280;40891;47.242;8.648;2023-05-07T09:49:06;96295.25;;;21.10;58.83
54994;BME280;40891;47.242;8.648;2023-05-07T09:51:41;96299.59;;;21.11;58.69
54994;BME280;40891;47.242;8.648;2023-05-07T09:54:08;96294.16;;;21.18;56.84
54994;BME280;40891;47.242;8.648;2023-05-07T09:56:34;96289.63;;;21.39;57.11
54994;BME280;40891;47.242;8.648;2023-05-07T09:59:01;96285.50;;;21.40;56.91
54994;BME280;40891;47.242;8.648;2023-05-07T10:01:30;96287.53;;;21.45;55.72
54994;BME280;40891;47.242;8.648;2023-05-07T10:03:57;96279.16;;;21.58;55.96
54994;BME280;40891;47.242;8.648;2023-05-07T10:06:24;96280.31;;;21.44;55.85
54994;BME280;40891;47.242;8.648;2023-05-07T10:08:51;96274.16;;;22.00;54.42
54994;BME280;40891;47.242;8.648;2023-05-07T10:11:17;96266.16;;;22.41;54.17
54994;BME280;40891;47.242;8.648;2023-05-07T10:13:43;96260.22;;;22.82;52.82
54994;BME280;40891;47.242;8.648;2023-05-07T10:16:08;96260.84;;;22.93;52.82
54994;BME280;40891;47.242;8.648;2023-05-07T10:18:34;96257.69;;;22.97;51.78
54994;BME280;40891;47.242;8.648;2023-05-07T10:21:20;96255.59;;;23.16;51.82
54994;BME280;40891;47.242;8.648;2023-05-07T10:23:49;96253.72;;;23.37;50.34
54994;BME280;40891;47.242;8.648;2023-05-07T10:26:15;96260.16;;;23.19;50.23
54994;BME280;40891;47.242;8.648;2023-05-07T10:28:50;96252.50;;;23.14;47.18
54994;BME280;40891;47.242;8.648;2023-05-07T10:31:40;96250.03;;;23.24;51.07
54994;BME280;40891;47.242;8.648;2023-05-07T10:34:11;96247.97;;;23.56;50.73
54994;BME280;40891;47.242;8.648;2023-05-07T10:36:38;96242.25;;;24.01;47.71
54994;BME280;40891;47.242;8.648;2023-05-07T10:39:05;96239.16;;;23.86;47.30
54994;BME280;40891;47.242;8.648;2023-05-07T10:41:31;96225.41;;;24.29;45.35
54994;BME280;40891;47.242;8.648;2023-05-07T10:43:56;96219.50;;;24.87;45.58
54994;BME280;40891;47.242;8.648;2023-05-07T10:46:22;96221.00;;;25.42;43.40
54994;BME280;40891;47.242;8.648;2023-05-07T10:51:26;96208.13;;;26.69;42.02
54994;BME280;40891;47.242;8.648;2023-05-07T10:56:43;96208.13;;;28.18;38.09
54994;BME280;40891;47.242;8.648;2023-05-07T11:01:58;96198.75;;;28.25;39.18
54994;BME280;40891;47.242;8.648;2023-05-07T11:04:25;96208.38;;;27.75;40.86
54994;BME280;40891;47.242;8.648;2023-05-07T11:12:16;96193.84;;;27.28;39.16
54994;BME280;40891;47.242;8.648;2023-05-07T11:17:11;96188.16;;;27.73;38.06
54994;BME280;40891;47.242;8.648;2023-05-07T11:19:53;96183.75;;;28.10;36.82
54994;BME280;40891;47.242;8.648;2023-05-07T11:24:59;96178.78;;;27.88;37.94
54994;BME280;40891;47.242;8.648;2023-05-07T11:27:26;96182.25;;;27.26;40.54
54994;BME280;40891;47.242;8.648;2023-05-07T11:29:52;96178.41;;;27.31;40.35
54994;BME280;40891;47.242;8.648;2023-05-07T11:32:28;96174.34;;;26.88;39.83
54994;BME280;40891;47.242;8.648;2023-05-07T11:34:55;96175.63;;;26.72;39.86
54994;BME280;40891;47.242;8.648;2023-05-07T11:37:21;96165.97;;;26.75;39.90
54994;BME280;40891;47.242;8.648;2023-05-07T11:39:47;96163.44;;;26.72;39.12
54994;BME280;40891;47.242;8.648;2023-05-07T11:42:33;96168.91;;;27.21;38.17
54994;BME280;40891;47.242;8.648;2023-05-07T11:44:59;96159.97;;;27.62;39.87
54994;BME280;40891;47.242;8.648;2023-05-07T11:47:24;96154.09;;;28.38;39.58
54994;BME280;40891;47.242;8.648;2023-05-07T11:49:53;96150.53;;;29.02;35.33
54994;BME280;40891;47.242;8.648;2023-05-07T11:52:22;96156.16;;;29.91;33.39
54994;BME280;40891;47.242;8.648;2023-05-07T11:54:57;96162.53;;;29.82;34.15
54994;BME280;40891;47.242;8.648;2023-05-07T11:57:26;96147.91;;;29.70;35.33
54994;BME280;40891;47.242;8.648;2023-05-07T11:59:55;96152.16;;;29.20;37.24
54994;BME280;40891;47.242;8.648;2023-05-07T12:02:20;96151.19;;;29.67;33.75
54994;BME280;40891;47.242;8.648;2023-05-07T12:04:46;96150.13;;;30.38;33.50
54994;BME280;40891;47.242;8.648;2023-05-07T12:07:12;96152.13;;;30.45;34.99
54994;BME280;40891;47.242;8.648;2023-05-07T12:09:38;96151.78;;;31.12;33.47
54994;BME280;40891;47.242;8.648;2023-05-07T12:12:05;96152.34;;;31.01;32.39
54994;BME280;40891;47.242;8.648;2023-05-07T12:14:30;96162.50;;;31.65;33.58
54994;BME280;40891;47.242;8.648;2023-05-07T12:16:56;96151.66;;;30.66;32.82
54994;BME280;40891;47.242;8.648;2023-05-07T12:19:22;96147.66;;;30.52;33.45
54994;BME280;40891;47.242;8.648;2023-05-07T12:21:47;96153.53;;;30.54;33.74
54994;BME280;40891;47.242;8.648;2023-05-07T12:24:14;96145.34;;;29.99;34.30
54994;BME280;40891;47.242;8.648;2023-05-07T12:26:40;96150.69;;;30.54;36.35
54994;BME280;40891;47.242;8.648;2023-05-07T12:29:06;96149.69;;;30.07;35.62
54994;BME280;40891;47.242;8.648;2023-05-07T12:31:31;96151.72;;;30.92;34.38
54994;BME280;40891;47.242;8.648;2023-05-07T12:33:57;96143.94;;;30.85;36.19
54994;BME280;40891;47.242;8.648;2023-05-07T12:36:22;96151.19;;;30.86;36.28
54994;BME280;40891;47.242;8.648;2023-05-07T12:38:49;96151.41;;;31.25;34.85
54994;BME280;40891;47.242;8.648;2023-05-07T12:41:15;96148.84;;;32.01;35.07
54994;BME280;40891;47.242;8.648;2023-05-07T12:43:43;96154.91;;;32.44;32.82
54994;BME280;40891;47.242;8.648;2023-05-07T12:46:09;96138.22;;;32.42;33.21
54994;BME280;40891;47.242;8.648;2023-05-07T12:48:38;96141.84;;;33.40;32.03
54994;BME280;40891;47.242;8.648;2023-05-07T12:51:08;96144.69;;;33.10;32.44
54994;BME280;40891;47.242;8.648;2023-05-07T12:53:39;96141.19;;;33.51;31.50
54994;BME280;40891;47.242;8.648;2023-05-07T12:56:05;96140.47;;;34.24;30.54
54994;BME280;40891;47.242;8.648;2023-05-07T12:58:33;96137.31;;;34.20;29.48
54994;BME280;40891;47.242;8.648;2023-05-07T13:01:00;96124.34;;;34.96;29.39
54994;BME280;40891;47.242;8.648;2023-05-07T13:03:31;96136.59;;;33.89;30.20
54994;BME280;40891;47.242;8.648;2023-05-07T13:05:59;96134.44;;;33.68;31.25
54994;BME280;40891;47.242;8.648;2023-05-07T13:10:55;96125.88;;;34.01;29.75
54994;BME280;40891;47.242;8.648;2023-05-07T13:13:20;96123.53;;;33.67;29.16
54994;BME280;40891;47.242;8.648;2023-05-07T13:15:47;96127.81;;;33.16;31.68